sensor_id;sensor_type;location;lat;lon;timestamp;P1;durP1;ratioP1;P2;durP2;ratioP2
74632;SDS011;63139;52.018;8.552;2023-05-18T00:00:05;9.85;;;4.60;;
74632;SDS011;63139;52.018;8.552;2023-05-18T00:02:36;9.80;;;4.43;;
74632;SDS011;63139;52.018;8.552;2023-05-18T00:05:06;11.68;;;4.15;;
74632;SDS011;63139;52.018;8.552;2023-05-18T00:07:35;8.02;;;4.00;;
74632;SDS011;63139;52.018;8.552;2023-05-18T00:10:05;7.18;;;3.83;;
74632;SDS011;63139;52.018;8.552;2023-05-18T00:12:35;10.80;;;3.67;;
74632;SDS011;63139;52.018;8.552;2023-05-18T00:15:04;8.82;;;3.90;;
74632;SDS011;63139;52.018;8.552;2023-05-18T00:17:33;10.00;;;4.22;;
74632;SDS011;63139;52.018;8.552;2023-05-18T00:20:01;10.38;;;4.00;;
74632;SDS011;63139;52.018;8.552;2023-05-18T00:22:30;8.05;;;4.20;;
74632;SDS011;63139;52.018;8.552;2023-05-18T00:24:58;11.95;;;4.70;;
74632;SDS011;63139;52.018;8.552;2023-05-18T00:27:26;8.00;;;3.58;;
74632;SDS011;63139;52.018;8.552;2023-05-18T00:29:56;9.00;;;4.35;;
74632;SDS011;63139;52.018;8.552;2023-05-18T00:32:24;12.02;;;4.18;;
74632;SDS011;63139;52.018;8.552;2023-05-18T00:34:52;8.68;;;4.47;;
74632;SDS011;63139;52.018;8.552;2023-05-18T00:37:21;9.10;;;4.38;;
74632;SDS011;63139;52.018;8.552;2023-05-18T00:39:49;9.18;;;3.95;;
74632;SDS011;63139;52.018;8.552;2023-05-18T00:42:17;10.88;;;4.38;;
74632;SDS011;63139;52.018;8.552;2023-05-18T00:44:45;10.98;;;4.47;;
74632;SDS011;63139;52.018;8.552;2023-05-18T00:47:15;6.35;;;4.07;;
74632;SDS011;63139;52.018;8.552;2023-05-18T00:49:46;10.88;;;5.28;;
74632;SDS011;63139;52.018;8.552;2023-05-18T00:52:15;7.95;;;4.57;;
74632;SDS011;63139;52.018;8.552;2023-05-18T00:54:45;8.32;;;3.78;;
74632;SDS011;63139;52.018;8.552;2023-05-18T00:57:14;8.40;;;4.35;;
74632;SDS011;63139;52.018;8.552;2023-05-18T00:59:44;8.02;;;3.50;;
74632;SDS011;63139;52.018;8.552;2023-05-18T01:02:15;13.38;;;4.82;;
74632;SDS011;63139;52.018;8.552;2023-05-18T01:04:43;9.00;;;4.07;;
74632;SDS011;63139;52.018;8.552;2023-05-18T01:07:12;8.93;;;4.20;;
74632;SDS011;63139;52.018;8.552;2023-05-18T01:09:42;11.77;;;4.85;;
74632;SDS011;63139;52.018;8.552;2023-05-18T01:12:15;10.43;;;4.13;;
74632;SDS011;63139;52.018;8.552;2023-05-18T01:14:48;13.68;;;4.57;;
74632;SDS011;63139;52.018;8.552;2023-05-18T01:17:24;8.70;;;4.88;;
74632;SDS011;63139;52.018;8.552;2023-05-18T01:20:06;12.55;;;4.65;;
74632;SDS011;63139;52.018;8.552;2023-05-18T01:22:49;16.63;;;4.90;;
74632;SDS011;63139;52.018;8.552;2023-05-18T01:25:32;15.90;;;4.82;;
74632;SDS011;63139;52.018;8.552;2023-05-18T01:28:11;13.18;;;5.53;;
74632;SDS011;63139;52.018;8.552;2023-05-18T01:30:42;11.83;;;5.37;;
74632;SDS011;63139;52.018;8.552;2023-05-18T01:33:11;10.30;;;4.85;;
74632;SDS011;63139;52.018;8.552;2023-05-18T01:35:40;11.15;;;4.97;;
74632;SDS011;63139;52.018;8.552;2023-05-18T01:38:14;9.23;;;4.20;;
74632;SDS011;63139;52.018;8.552;2023-05-18T01:40:45;10.18;;;4.88;;
74632;SDS011;63139;52.018;8.552;2023-05-18T01:43:22;10.07;;;5.63;;
74632;SDS011;63139;52.018;8.552;2023-05-18T01:45:55;12.70;;;4.80;;
74632;SDS011;63139;52.018;8.552;2023-05-18T01:48:28;10.82;;;5.18;;
74632;SDS011;63139;52.018;8.552;2023-05-18T01:50:57;6.78;;;4.22;;
74632;SDS011;63139;52.018;8.552;2023-05-18T01:53:27;7.68;;;4.82;;
74632;SDS011;63139;52.018;8.552;2023-05-18T01:56:00;9.30;;;4.07;;
74632;SDS011;63139;52.018;8.552;2023-05-18T01:58:35;13.27;;;6.43;;
74632;SDS011;63139;52.018;8.552;2023-05-18T02:01:05;14.35;;;5.75;;
74632;SDS011;63139;52.018;8.552;2023-05-18T02:03:33;13.15;;;5.70;;
74632;SDS011;63139;52.018;8.552;2023-05-18T02:06:01;11.07;;;4.85;;
74632;SDS011;63139;52.018;8.552;2023-05-18T02:08:30;9.88;;;4.35;;
74632;SDS011;63139;52.018;8.552;2023-05-18T02:10:59;10.45;;;4.57;;
74632;SDS011;63139;52.018;8.552;2023-05-18T02:13:27;10.60;;;4.68;;
74632;SDS011;63139;52.018;8.552;2023-05-18T02:15:56;10.48;;;5.00;;
74632;SDS011;63139;52.018;8.552;2023-05-18T02:18:24;11.00;;;5.50;;
74632;SDS011;63139;52.018;8.552;2023-05-18T02:20:56;11.55;;;4.78;;
74632;SDS011;63139;52.018;8.552;2023-05-18T02:23:25;11.27;;;5.10;;
74632;SDS011;63139;52.018;8.552;2023-05-18T02:25:53;12.70;;;5.47;;
74632;SDS011;63139;52.018;8.552;2023-05-18T02:28:23;7.80;;;4.78;;
74632;SDS011;63139;52.018;8.552;2023-05-18T02:30:51;13.63;;;4.70;;
74632;SDS011;63139;52.018;8.552;2023-05-18T02:33:20;8.48;;;5.03;;
74632;SDS011;63139;52.018;8.552;2023-05-18T02:35:52;10.40;;;4.68;;
74632;SDS011;63139;52.018;8.552;2023-05-18T02:38:20;17.27;;;7.15;;
74632;SDS011;63139;52.018;8.552;2023-05-18T02:40:48;11.65;;;5.65;;
74632;SDS011;63139;52.018;8.552;2023-05-18T02:43:16;11.68;;;5.32;;
74632;SDS011;63139;52.018;8.552;2023-05-18T02:45:45;11.15;;;5.05;;
74632;SDS011;63139;52.018;8.552;2023-05-18T02:48:13;8.43;;;5.13;;
74632;SDS011;63139;52.018;8.552;2023-05-18T02:50:43;9.00;;;5.47;;
74632;SDS011;63139;52.018;8.552;2023-05-18T02:53:12;13.07;;;6.03;;
74632;SDS011;63139;52.018;8.552;2023-05-18T02:55:40;10.63;;;6.13;;
74632;SDS011;63139;52.018;8.552;2023-05-18T02:58:14;8.68;;;4.63;;
74632;SDS011;63139;52.018;8.552;2023-05-18T03:00:57;12.50;;;4.93;;
74632;SDS011;63139;52.018;8.552;2023-05-18T03:03:32;8.02;;;4.95;;
74632;SDS011;63139;52.018;8.552;2023-05-18T03:06:02;10.15;;;5.50;;
74632;SDS011;63139;52.018;8.552;2023-05-18T03:08:31;9.15;;;5.20;;
74632;SDS011;63139;52.018;8.552;2023-05-18T03:10:59;14.38;;;6.50;;
74632;SDS011;63139;52.018;8.552;2023-05-18T03:13:28;13.40;;;6.03;;
74632;SDS011;63139;52.018;8.552;2023-05-18T03:15:57;10.63;;;5.50;;
74632;SDS011;63139;52.018;8.552;2023-05-18T03:18:26;11.55;;;5.65;;
74632;SDS011;63139;52.018;8.552;2023-05-18T03:20:54;10.25;;;4.72;;
74632;SDS011;63139;52.018;8.552;2023-05-18T03:23:29;8.95;;;5.35;;
74632;SDS011;63139;52.018;8.552;2023-05-18T03:25:58;13.23;;;5.57;;
74632;SDS011;63139;52.018;8.552;2023-05-18T03:28:29;10.90;;;5.28;;
74632;SDS011;63139;52.018;8.552;2023-05-18T03:30:57;9.70;;;5.18;;
74632;SDS011;63139;52.018;8.552;2023-05-18T03:33:26;12.52;;;6.38;;
74632;SDS011;63139;52.018;8.552;2023-05-18T03:35:54;10.10;;;5.13;;
74632;SDS011;63139;52.018;8.552;2023-05-18T03:38:22;10.55;;;5.88;;
74632;SDS011;63139;52.018;8.552;2023-05-18T03:40:58;13.85;;;6.15;;
74632;SDS011;63139;52.018;8.552;2023-05-18T03:43:26;8.82;;;5.13;;
74632;SDS011;63139;52.018;8.552;2023-05-18T03:45:59;11.02;;;5.70;;
74632;SDS011;63139;52.018;8.552;2023-05-18T03:48:27;7.28;;;4.90;;
74632;SDS011;63139;52.018;8.552;2023-05-18T03:50:56;9.75;;;4.47;;
74632;SDS011;63139;52.018;8.552;2023-05-18T03:53:27;11.57;;;5.68;;
74632;SDS011;63139;52.018;8.552;2023-05-18T03:55:56;10.35;;;4.93;;
74632;SDS011;63139;52.018;8.552;2023-05-18T03:58:26;11.77;;;5.78;;
74632;SDS011;63139;52.018;8.552;2023-05-18T04:00:54;13.25;;;6.40;;
74632;SDS011;63139;52.018;8.552;2023-05-18T04:03:22;14.68;;;7.30;;
74632;SDS011;63139;52.018;8.552;2023-05-18T04:05:52;13.95;;;6.55;;
74632;SDS011;63139;52.018;8.552;2023-05-18T04:08:21;10.63;;;5.28;;
74632;SDS011;63139;52.018;8.552;2023-05-18T04:10:51;12.35;;;5.60;;
74632;SDS011;63139;52.018;8.552;2023-05-18T04:13:19;11.63;;;5.43;;
74632;SDS011;63139;52.018;8.552;2023-05-18T04:15:48;12.70;;;5.60;;
74632;SDS011;63139;52.018;8.552;2023-05-18T04:18:17;10.30;;;5.90;;
74632;SDS011;63139;52.018;8.552;2023-05-18T04:20:45;17.50;;;6.68;;
74632;SDS011;63139;52.018;8.552;2023-05-18T04:23:13;11.90;;;5.70;;
74632;SDS011;63139;52.018;8.552;2023-05-18T04:25:42;10.45;;;5.90;;
74632;SDS011;63139;52.018;8.552;2023-05-18T04:28:10;13.18;;;5.15;;
74632;SDS011;63139;52.018;8.552;2023-05-18T04:30:39;8.00;;;4.45;;
74632;SDS011;63139;52.018;8.552;2023-05-18T04:33:08;8.73;;;4.95;;
74632;SDS011;63139;52.018;8.552;2023-05-18T04:35:38;10.98;;;5.88;;
74632;SDS011;63139;52.018;8.552;2023-05-18T04:38:07;10.63;;;5.50;;
74632;SDS011;63139;52.018;8.552;2023-05-18T04:40:37;9.02;;;5.72;;
74632;SDS011;63139;52.018;8.552;2023-05-18T04:43:10;12.70;;;5.13;;
74632;SDS011;63139;52.018;8.552;2023-05-18T04:45:38;13.27;;;5.00;;
74632;SDS011;63139;52.018;8.552;2023-05-18T04:48:06;7.65;;;4.57;;
74632;SDS011;63139;52.018;8.552;2023-05-18T04:50:37;12.82;;;5.50;;
74632;SDS011;63139;52.018;8.552;2023-05-18T04:53:06;10.88;;;5.95;;
74632;SDS011;63139;52.018;8.552;2023-05-18T04:55:34;11.85;;;5.57;;
74632;SDS011;63139;52.018;8.552;2023-05-18T04:58:06;13.70;;;6.10;;
74632;SDS011;63139;52.018;8.552;2023-05-18T05:00:35;17.25;;;5.57;;
74632;SDS011;63139;52.018;8.552;2023-05-18T05:03:04;9.48;;;4.40;;
74632;SDS011;63139;52.018;8.552;2023-05-18T05:05:32;13.00;;;5.00;;
74632;SDS011;63139;52.018;8.552;2023-05-18T05:08:02;7.60;;;4.38;;
74632;SDS011;63139;52.018;8.552;2023-05-18T05:10:32;10.15;;;5.05;;
74632;SDS011;63139;52.018;8.552;2023-05-18T05:13:00;12.98;;;4.05;;
74632;SDS011;63139;52.018;8.552;2023-05-18T05:15:28;6.72;;;3.95;;
74632;SDS011;63139;52.018;8.552;2023-05-18T05:17:57;6.82;;;3.55;;
74632;SDS011;63139;52.018;8.552;2023-05-18T05:20:25;9.32;;;3.63;;
74632;SDS011;63139;52.018;8.552;2023-05-18T05:22:53;10.05;;;3.80;;
74632;SDS011;63139;52.018;8.552;2023-05-18T05:25:26;11.13;;;3.42;;
74632;SDS011;63139;52.018;8.552;2023-05-18T05:27:54;11.38;;;3.60;;
74632;SDS011;63139;52.018;8.552;2023-05-18T05:30:23;6.47;;;3.00;;
74632;SDS011;63139;52.018;8.552;2023-05-18T05:32:51;9.68;;;3.78;;
74632;SDS011;63139;52.018;8.552;2023-05-18T05:35:22;4.68;;;3.17;;
74632;SDS011;63139;52.018;8.552;2023-05-18T05:41:12;5.05;;;2.47;;
74632;SDS011;63139;52.018;8.552;2023-05-18T05:43:40;7.45;;;2.50;;
74632;SDS011;63139;52.018;8.552;2023-05-18T05:46:08;7.82;;;2.45;;
74632;SDS011;63139;52.018;8.552;2023-05-18T05:48:36;14.52;;;3.45;;
74632;SDS011;63139;52.018;8.552;2023-05-18T05:51:04;6.38;;;3.15;;
74632;SDS011;63139;52.018;8.552;2023-05-18T05:53:32;10.65;;;2.95;;
74632;SDS011;63139;52.018;8.552;2023-05-18T05:56:01;6.32;;;2.60;;
74632;SDS011;63139;52.018;8.552;2023-05-18T05:58:33;6.05;;;2.83;;
74632;SDS011;63139;52.018;8.552;2023-05-18T06:01:01;6.65;;;2.50;;
74632;SDS011;63139;52.018;8.552;2023-05-18T06:03:30;7.68;;;2.67;;
74632;SDS011;63139;52.018;8.552;2023-05-18T06:06:03;10.77;;;2.60;;
74632;SDS011;63139;52.018;8.552;2023-05-18T06:08:32;8.88;;;2.88;;
74632;SDS011;63139;52.018;8.552;2023-05-18T06:11:00;7.03;;;2.53;;
74632;SDS011;63139;52.018;8.552;2023-05-18T06:13:28;7.03;;;2.35;;
74632;SDS011;63139;52.018;8.552;2023-05-18T06:15:58;6.13;;;2.40;;
74632;SDS011;63139;52.018;8.552;2023-05-18T06:18:27;9.13;;;2.22;;
74632;SDS011;63139;52.018;8.552;2023-05-18T06:20:59;5.78;;;2.28;;
74632;SDS011;63139;52.018;8.552;2023-05-18T06:23:27;10.73;;;2.47;;
74632;SDS011;63139;52.018;8.552;2023-05-18T06:26:02;4.32;;;1.92;;
74632;SDS011;63139;52.018;8.552;2023-05-18T06:28:35;10.10;;;3.90;;
74632;SDS011;63139;52.018;8.552;2023-05-18T06:31:22;9.98;;;2.75;;
74632;SDS011;63139;52.018;8.552;2023-05-18T06:34:12;10.88;;;3.10;;
74632;SDS011;63139;52.018;8.552;2023-05-18T06:36:40;8.18;;;2.40;;
74632;SDS011;63139;52.018;8.552;2023-05-18T06:39:08;8.60;;;2.60;;
74632;SDS011;63139;52.018;8.552;2023-05-18T06:41:37;8.07;;;3.55;;
74632;SDS011;63139;52.018;8.552;2023-05-18T06:44:05;8.93;;;2.85;;
74632;SDS011;63139;52.018;8.552;2023-05-18T06:46:36;6.82;;;3.13;;
74632;SDS011;63139;52.018;8.552;2023-05-18T06:49:16;13.07;;;2.70;;
74632;SDS011;63139;52.018;8.552;2023-05-18T06:51:44;9.73;;;2.78;;
74632;SDS011;63139;52.018;8.552;2023-05-18T06:54:13;6.57;;;2.20;;
74632;SDS011;63139;52.018;8.552;2023-05-18T06:56:41;7.60;;;2.88;;
74632;SDS011;63139;52.018;8.552;2023-05-18T06:59:10;6.65;;;2.05;;
74632;SDS011;63139;52.018;8.552;2023-05-18T07:01:39;9.20;;;3.00;;
74632;SDS011;63139;52.018;8.552;2023-05-18T07:04:08;9.82;;;2.25;;
74632;SDS011;63139;52.018;8.552;2023-05-18T07:06:36;5.20;;;2.22;;
74632;SDS011;63139;52.018;8.552;2023-05-18T07:09:04;11.75;;;2.30;;
74632;SDS011;63139;52.018;8.552;2023-05-18T07:11:33;6.05;;;2.03;;
74632;SDS011;63139;52.018;8.552;2023-05-18T07:14:01;11.15;;;2.45;;
74632;SDS011;63139;52.018;8.552;2023-05-18T07:16:29;8.82;;;2.67;;
74632;SDS011;63139;52.018;8.552;2023-05-18T07:18:59;10.60;;;2.15;;
74632;SDS011;63139;52.018;8.552;2023-05-18T07:21:27;9.43;;;2.20;;
74632;SDS011;63139;52.018;8.552;2023-05-18T07:23:55;7.15;;;2.22;;
74632;SDS011;63139;52.018;8.552;2023-05-18T07:26:23;8.10;;;2.55;;
74632;SDS011;63139;52.018;8.552;2023-05-18T07:28:52;5.25;;;1.95;;
74632;SDS011;63139;52.018;8.552;2023-05-18T07:31:20;9.02;;;2.30;;
74632;SDS011;63139;52.018;8.552;2023-05-18T07:33:48;6.32;;;2.05;;
74632;SDS011;63139;52.018;8.552;2023-05-18T07:36:18;8.55;;;2.38;;
74632;SDS011;63139;52.018;8.552;2023-05-18T07:38:46;6.55;;;2.50;;
74632;SDS011;63139;52.018;8.552;2023-05-18T07:41:20;11.43;;;3.08;;
74632;SDS011;63139;52.018;8.552;2023-05-18T07:43:49;10.02;;;2.30;;
74632;SDS011;63139;52.018;8.552;2023-05-18T07:46:18;11.20;;;2.90;;
74632;SDS011;63139;52.018;8.552;2023-05-18T07:48:46;6.13;;;1.80;;
74632;SDS011;63139;52.018;8.552;2023-05-18T07:51:14;7.15;;;2.20;;
74632;SDS011;63139;52.018;8.552;2023-05-18T07:53:44;7.82;;;1.98;;
74632;SDS011;63139;52.018;8.552;2023-05-18T07:56:12;9.52;;;2.40;;
74632;SDS011;63139;52.018;8.552;2023-05-18T07:58:40;10.30;;;2.85;;
74632;SDS011;63139;52.018;8.552;2023-05-18T08:01:10;10.18;;;2.70;;
74632;SDS011;63139;52.018;8.552;2023-05-18T08:03:38;6.75;;;2.25;;
74632;SDS011;63139;52.018;8.552;2023-05-18T08:06:06;8.85;;;2.45;;
74632;SDS011;63139;52.018;8.552;2023-05-18T08:08:34;9.00;;;2.53;;
74632;SDS011;63139;52.018;8.552;2023-05-18T08:11:04;9.45;;;2.33;;
74632;SDS011;63139;52.018;8.552;2023-05-18T08:13:33;7.95;;;2.63;;
74632;SDS011;63139;52.018;8.552;2023-05-18T08:16:01;8.32;;;2.53;;
74632;SDS011;63139;52.018;8.552;2023-05-18T08:18:38;5.07;;;2.20;;
74632;SDS011;63139;52.018;8.552;2023-05-18T08:21:06;12.00;;;2.90;;
74632;SDS011;63139;52.018;8.552;2023-05-18T08:23:36;11.45;;;2.55;;
74632;SDS011;63139;52.018;8.552;2023-05-18T08:26:06;11.27;;;2.85;;
74632;SDS011;63139;52.018;8.552;2023-05-18T08:28:37;11.07;;;2.72;;
74632;SDS011;63139;52.018;8.552;2023-05-18T08:31:06;8.25;;;2.08;;
74632;SDS011;63139;52.018;8.552;2023-05-18T08:33:34;10.05;;;2.83;;
74632;SDS011;63139;52.018;8.552;2023-05-18T08:36:02;8.63;;;2.58;;
74632;SDS011;63139;52.018;8.552;2023-05-18T08:38:31;9.43;;;2.28;;
74632;SDS011;63139;52.018;8.552;2023-05-18T08:41:01;5.85;;;1.98;;
74632;SDS011;63139;52.018;8.552;2023-05-18T08:43:37;8.20;;;2.50;;
74632;SDS011;63139;52.018;8.552;2023-05-18T08:46:09;9.80;;;2.60;;
74632;SDS011;63139;52.018;8.552;2023-05-18T08:48:44;10.02;;;3.08;;
74632;SDS011;63139;52.018;8.552;2023-05-18T08:51:14;9.02;;;2.83;;
74632;SDS011;63139;52.018;8.552;2023-05-18T08:53:47;6.97;;;2.92;;
74632;SDS011;63139;52.018;8.552;2023-05-18T08:56:19;9.95;;;2.80;;
74632;SDS011;63139;52.018;8.552;2023-05-18T08:58:51;11.43;;;2.92;;
74632;SDS011;63139;52.018;8.552;2023-05-18T09:01:22;5.82;;;2.58;;
74632;SDS011;63139;52.018;8.552;2023-05-18T09:03:54;6.75;;;2.70;;
74632;SDS011;63139;52.018;8.552;2023-05-18T09:06:24;10.02;;;2.85;;
74632;SDS011;63139;52.018;8.552;2023-05-18T09:08:54;9.55;;;2.72;;
74632;SDS011;63139;52.018;8.552;2023-05-18T09:11:24;9.13;;;2.45;;
74632;SDS011;63139;52.018;8.552;2023-05-18T09:13:55;4.18;;;2.50;;
74632;SDS011;63139;52.018;8.552;2023-05-18T09:16:23;8.13;;;2.70;;
74632;SDS011;63139;52.018;8.552;2023-05-18T09:18:51;9.60;;;2.90;;
74632;SDS011;63139;52.018;8.552;2023-05-18T09:21:20;7.80;;;3.00;;
74632;SDS011;63139;52.018;8.552;2023-05-18T09:23:49;5.45;;;2.58;;
74632;SDS011;63139;52.018;8.552;2023-05-18T09:26:18;5.03;;;2.60;;
74632;SDS011;63139;52.018;8.552;2023-05-18T09:28:50;13.45;;;3.33;;
74632;SDS011;63139;52.018;8.552;2023-05-18T09:31:21;8.77;;;2.60;;
74632;SDS011;63139;52.018;8.552;2023-05-18T09:33:50;7.18;;;2.67;;
74632;SDS011;63139;52.018;8.552;2023-05-18T09:36:22;5.70;;;2.55;;
74632;SDS011;63139;52.018;8.552;2023-05-18T09:38:51;8.10;;;2.60;;
74632;SDS011;63139;52.018;8.552;2023-05-18T09:41:19;6.07;;;2.55;;
74632;SDS011;63139;52.018;8.552;2023-05-18T09:43:48;7.45;;;2.90;;
74632;SDS011;63139;52.018;8.552;2023-05-18T09:46:18;9.35;;;2.63;;
74632;SDS011;63139;52.018;8.552;2023-05-18T09:48:49;8.73;;;2.65;;
74632;SDS011;63139;52.018;8.552;2023-05-18T09:51:18;5.25;;;2.40;;
74632;SDS011;63139;52.018;8.552;2023-05-18T09:53:52;6.85;;;2.45;;
74632;SDS011;63139;52.018;8.552;2023-05-18T09:56:21;9.00;;;2.72;;
74632;SDS011;63139;52.018;8.552;2023-05-18T09:58:50;9.15;;;3.03;;
74632;SDS011;63139;52.018;8.552;2023-05-18T10:01:18;7.53;;;2.80;;
74632;SDS011;63139;52.018;8.552;2023-05-18T10:03:46;8.55;;;3.10;;
74632;SDS011;63139;52.018;8.552;2023-05-18T10:06:16;9.68;;;2.92;;
74632;SDS011;63139;52.018;8.552;2023-05-18T10:08:46;10.20;;;3.42;;
74632;SDS011;63139;52.018;8.552;2023-05-18T10:11:16;9.45;;;3.35;;
74632;SDS011;63139;52.018;8.552;2023-05-18T10:13:45;9.43;;;2.78;;
74632;SDS011;63139;52.018;8.552;2023-05-18T10:16:13;5.85;;;2.97;;
74632;SDS011;63139;52.018;8.552;2023-05-18T10:18:42;8.25;;;3.45;;
74632;SDS011;63139;52.018;8.552;2023-05-18T10:21:10;7.88;;;2.72;;
74632;SDS011;63139;52.018;8.552;2023-05-18T10:23:42;7.30;;;3.30;;
74632;SDS011;63139;52.018;8.552;2023-05-18T10:26:13;5.97;;;2.70;;
74632;SDS011;63139;52.018;8.552;2023-05-18T10:28:47;5.70;;;2.65;;
74632;SDS011;63139;52.018;8.552;2023-05-18T10:31:17;6.60;;;2.88;;
74632;SDS011;63139;52.018;8.552;2023-05-18T10:33:47;10.13;;;2.70;;
74632;SDS011;63139;52.018;8.552;2023-05-18T10:36:17;7.00;;;3.13;;
74632;SDS011;63139;52.018;8.552;2023-05-18T10:38:47;10.05;;;3.20;;
74632;SDS011;63139;52.018;8.552;2023-05-18T10:41:16;6.97;;;2.97;;
74632;SDS011;63139;52.018;8.552;2023-05-18T10:43:48;7.90;;;3.42;;
74632;SDS011;63139;52.018;8.552;2023-05-18T10:46:17;11.38;;;3.28;;
74632;SDS011;63139;52.018;8.552;2023-05-18T10:48:47;7.45;;;2.65;;
74632;SDS011;63139;52.018;8.552;2023-05-18T10:51:18;5.57;;;2.70;;
74632;SDS011;63139;52.018;8.552;2023-05-18T10:53:49;6.57;;;2.72;;
74632;SDS011;63139;52.018;8.552;2023-05-18T10:56:20;6.93;;;2.90;;
74632;SDS011;63139;52.018;8.552;2023-05-18T10:58:50;8.20;;;2.75;;
74632;SDS011;63139;52.018;8.552;2023-05-18T11:01:18;12.70;;;3.67;;
74632;SDS011;63139;52.018;8.552;2023-05-18T11:03:47;7.63;;;3.22;;
74632;SDS011;63139;52.018;8.552;2023-05-18T11:06:16;7.43;;;3.08;;
74632;SDS011;63139;52.018;8.552;2023-05-18T11:08:52;8.43;;;3.17;;
74632;SDS011;63139;52.018;8.552;2023-05-18T11:11:21;8.65;;;3.25;;
74632;SDS011;63139;52.018;8.552;2023-05-18T11:13:52;7.68;;;2.78;;
74632;SDS011;63139;52.018;8.552;2023-05-18T11:16:21;8.13;;;3.05;;
74632;SDS011;63139;52.018;8.552;2023-05-18T11:19:03;7.07;;;3.25;;
74632;SDS011;63139;52.018;8.552;2023-05-18T11:21:51;8.73;;;2.95;;
74632;SDS011;63139;52.018;8.552;2023-05-18T11:24:25;9.35;;;3.45;;
74632;SDS011;63139;52.018;8.552;2023-05-18T11:29:29;7.30;;;2.70;;
74632;SDS011;63139;52.018;8.552;2023-05-18T11:31:58;6.95;;;2.95;;
74632;SDS011;63139;52.018;8.552;2023-05-18T11:34:39;8.93;;;2.75;;
74632;SDS011;63139;52.018;8.552;2023-05-18T11:37:11;10.77;;;3.80;;
74632;SDS011;63139;52.018;8.552;2023-05-18T11:39:41;6.72;;;2.95;;
74632;SDS011;63139;52.018;8.552;2023-05-18T11:45:04;4.53;;;2.17;;
74632;SDS011;63139;52.018;8.552;2023-05-18T11:47:33;7.88;;;2.78;;
74632;SDS011;63139;52.018;8.552;2023-05-18T11:50:05;8.00;;;3.20;;
74632;SDS011;63139;52.018;8.552;2023-05-18T11:52:43;7.80;;;3.20;;
74632;SDS011;63139;52.018;8.552;2023-05-18T11:55:14;9.27;;;3.10;;
74632;SDS011;63139;52.018;8.552;2023-05-18T11:57:46;7.32;;;3.40;;
74632;SDS011;63139;52.018;8.552;2023-05-18T12:00:18;7.22;;;2.95;;
74632;SDS011;63139;52.018;8.552;2023-05-18T12:02:47;11.65;;;3.50;;
74632;SDS011;63139;52.018;8.552;2023-05-18T12:05:16;8.38;;;3.30;;
74632;SDS011;63139;52.018;8.552;2023-05-18T12:07:44;12.48;;;2.92;;
74632;SDS011;63139;52.018;8.552;2023-05-18T12:10:21;7.43;;;2.92;;
74632;SDS011;63139;52.018;8.552;2023-05-18T12:12:50;10.23;;;3.35;;
74632;SDS011;63139;52.018;8.552;2023-05-18T12:15:20;6.85;;;2.72;;
74632;SDS011;63139;52.018;8.552;2023-05-18T12:17:50;12.98;;;2.47;;
74632;SDS011;63139;52.018;8.552;2023-05-18T12:20:19;5.00;;;2.30;;
74632;SDS011;63139;52.018;8.552;2023-05-18T12:22:51;7.15;;;2.88;;
74632;SDS011;63139;52.018;8.552;2023-05-18T12:25:22;8.93;;;2.58;;
74632;SDS011;63139;52.018;8.552;2023-05-18T12:27:51;8.40;;;3.10;;
74632;SDS011;63139;52.018;8.552;2023-05-18T12:30:20;5.97;;;2.72;;
74632;SDS011;63139;52.018;8.552;2023-05-18T12:32:50;9.40;;;3.30;;
74632;SDS011;63139;52.018;8.552;2023-05-18T12:35:20;8.10;;;2.95;;
74632;SDS011;63139;52.018;8.552;2023-05-18T12:37:49;11.77;;;3.72;;
74632;SDS011;63139;52.018;8.552;2023-05-18T12:40:18;5.95;;;2.60;;
74632;SDS011;63139;52.018;8.552;2023-05-18T12:42:51;7.35;;;2.72;;
74632;SDS011;63139;52.018;8.552;2023-05-18T12:45:20;8.43;;;2.92;;
74632;SDS011;63139;52.018;8.552;2023-05-18T12:47:49;6.90;;;2.60;;
74632;SDS011;63139;52.018;8.552;2023-05-18T12:50:20;8.77;;;2.53;;
74632;SDS011;63139;52.018;8.552;2023-05-18T12:52:49;5.00;;;2.40;;
74632;SDS011;63139;52.018;8.552;2023-05-18T12:55:18;7.75;;;2.83;;
74632;SDS011;63139;52.018;8.552;2023-05-18T12:57:58;9.20;;;3.00;;
74632;SDS011;63139;52.018;8.552;2023-05-18T13:00:30;5.93;;;2.75;;
74632;SDS011;63139;52.018;8.552;2023-05-18T13:03:05;9.55;;;2.70;;
74632;SDS011;63139;52.018;8.552;2023-05-18T13:05:38;7.28;;;2.72;;
74632;SDS011;63139;52.018;8.552;2023-05-18T13:08:07;9.98;;;3.72;;
74632;SDS011;63139;52.018;8.552;2023-05-18T13:10:36;7.93;;;2.83;;
74632;SDS011;63139;52.018;8.552;2023-05-18T13:13:05;6.80;;;2.35;;
74632;SDS011;63139;52.018;8.552;2023-05-18T13:15:34;9.10;;;3.00;;
74632;SDS011;63139;52.018;8.552;2023-05-18T13:18:04;5.22;;;2.50;;
74632;SDS011;63139;52.018;8.552;2023-05-18T13:20:37;5.93;;;2.25;;
74632;SDS011;63139;52.018;8.552;2023-05-18T13:23:07;9.20;;;2.40;;
74632;SDS011;63139;52.018;8.552;2023-05-18T13:25:37;10.55;;;2.92;;
74632;SDS011;63139;52.018;8.552;2023-05-18T13:28:06;7.20;;;2.55;;
74632;SDS011;63139;52.018;8.552;2023-05-18T13:30:36;8.98;;;2.83;;
74632;SDS011;63139;52.018;8.552;2023-05-18T13:33:05;5.45;;;2.42;;
74632;SDS011;63139;52.018;8.552;2023-05-18T13:35:35;8.95;;;2.95;;
74632;SDS011;63139;52.018;8.552;2023-05-18T13:38:03;5.97;;;2.60;;
74632;SDS011;63139;52.018;8.552;2023-05-18T13:40:31;7.40;;;2.53;;
74632;SDS011;63139;52.018;8.552;2023-05-18T13:43:00;5.72;;;2.60;;
74632;SDS011;63139;52.018;8.552;2023-05-18T13:45:29;6.20;;;2.58;;
74632;SDS011;63139;52.018;8.552;2023-05-18T13:47:58;6.53;;;2.65;;
74632;SDS011;63139;52.018;8.552;2023-05-18T13:50:26;13.38;;;2.83;;
74632;SDS011;63139;52.018;8.552;2023-05-18T13:52:55;6.47;;;2.40;;
74632;SDS011;63139;52.018;8.552;2023-05-18T13:55:23;8.90;;;2.45;;
74632;SDS011;63139;52.018;8.552;2023-05-18T13:57:51;5.68;;;2.63;;
74632;SDS011;63139;52.018;8.552;2023-05-18T14:00:19;8.63;;;2.80;;
74632;SDS011;63139;52.018;8.552;2023-05-18T14:02:49;7.68;;;2.72;;
74632;SDS011;63139;52.018;8.552;2023-05-18T14:05:18;7.53;;;2.67;;
74632;SDS011;63139;52.018;8.552;2023-05-18T14:07:47;7.43;;;2.70;;
74632;SDS011;63139;52.018;8.552;2023-05-18T14:10:15;5.78;;;2.28;;
74632;SDS011;63139;52.018;8.552;2023-05-18T14:12:43;9.38;;;2.95;;
74632;SDS011;63139;52.018;8.552;2023-05-18T14:15:12;6.03;;;2.67;;
74632;SDS011;63139;52.018;8.552;2023-05-18T14:17:40;8.07;;;2.88;;
74632;SDS011;63139;52.018;8.552;2023-05-18T14:20:10;6.35;;;2.72;;
74632;SDS011;63139;52.018;8.552;2023-05-18T14:22:39;7.93;;;3.20;;
74632;SDS011;63139;52.018;8.552;2023-05-18T14:25:07;9.10;;;3.30;;
74632;SDS011;63139;52.018;8.552;2023-05-18T14:27:36;6.03;;;2.47;;
74632;SDS011;63139;52.018;8.552;2023-05-18T14:30:04;5.75;;;2.72;;
74632;SDS011;63139;52.018;8.552;2023-05-18T14:32:33;10.32;;;3.00;;
74632;SDS011;63139;52.018;8.552;2023-05-18T14:35:02;8.30;;;2.65;;
74632;SDS011;63139;52.018;8.552;2023-05-18T14:37:32;7.70;;;3.35;;
74632;SDS011;63139;52.018;8.552;2023-05-18T14:40:00;5.50;;;2.42;;
74632;SDS011;63139;52.018;8.552;2023-05-18T14:42:28;7.85;;;2.55;;
74632;SDS011;63139;52.018;8.552;2023-05-18T14:44:56;7.05;;;2.70;;
74632;SDS011;63139;52.018;8.552;2023-05-18T14:47:25;5.95;;;2.83;;
74632;SDS011;63139;52.018;8.552;2023-05-18T14:49:53;8.65;;;2.75;;
74632;SDS011;63139;52.018;8.552;2023-05-18T14:52:21;12.52;;;3.65;;
74632;SDS011;63139;52.018;8.552;2023-05-18T14:54:50;6.75;;;2.30;;
74632;SDS011;63139;52.018;8.552;2023-05-18T14:57:19;6.68;;;2.72;;
74632;SDS011;63139;52.018;8.552;2023-05-18T14:59:47;11.73;;;3.42;;
74632;SDS011;63139;52.018;8.552;2023-05-18T15:02:15;9.32;;;3.13;;
74632;SDS011;63139;52.018;8.552;2023-05-18T15:04:43;7.03;;;2.97;;
74632;SDS011;63139;52.018;8.552;2023-05-18T15:07:11;11.55;;;3.00;;